createdAt,value
2019-01-25T18:15:39.879Z,29.18
2019-01-25T18:18:08.340Z,31.87
2019-01-25T18:20:36.800Z,30.32
2019-01-25T18:23:05.304Z,31.42
2019-01-25T18:26:02.309Z,34.78
2019-01-25T18:28:34.959Z,34.15
2019-01-25T18:31:11.092Z,32.42
2019-01-25T18:33:39.531Z,32.33
2019-01-25T18:36:07.987Z,33.00
2019-01-25T18:38:36.741Z,33.35
2019-01-25T18:41:05.267Z,31.95
2019-01-25T18:43:33.708Z,30.25
2019-01-25T18:46:02.164Z,34.63
2019-01-25T18:48:30.632Z,30.92
2019-01-25T18:50:59.077Z,31.97
2019-01-25T18:53:27.521Z,33.75
2019-01-25T18:55:55.964Z,32.03
2019-01-25T18:58:24.395Z,33.73
2019-01-25T19:00:53.028Z,30.55
2019-01-25T19:03:21.557Z,30.43
2019-01-25T19:05:50.006Z,33.00
2019-01-25T19:08:18.885Z,34.33
2019-01-25T19:10:47.344Z,37.13
2019-01-25T19:13:15.783Z,33.35
2019-01-25T19:15:44.247Z,32.30
2019-01-25T19:18:12.943Z,29.30
2019-01-25T19:20:41.397Z,33.10
2019-01-25T19:23:10.190Z,32.88
2019-01-25T19:25:38.658Z,35.78
2019-01-25T19:28:07.175Z,37.35
2019-01-25T19:30:37.949Z,36.03
2019-01-25T19:33:06.458Z,33.20
2019-01-25T19:35:35.184Z,34.63
2019-01-25T19:38:03.937Z,36.28
2019-01-25T19:40:32.722Z,37.30
2019-01-25T19:43:01.163Z,37.17
2019-01-25T19:45:29.620Z,35.78
2019-01-25T19:47:58.139Z,37.60
2019-01-25T19:50:26.643Z,39.03
2019-01-25T19:52:55.093Z,38.17
2019-01-25T19:55:25.418Z,42.40
2019-01-25T19:57:53.864Z,39.18
2019-01-25T20:00:27.743Z,39.25
2019-01-25T20:02:56.539Z,38.63
2019-01-25T20:05:25.756Z,42.38
2019-01-25T20:07:54.205Z,45.83
2019-01-25T20:10:23.009Z,51.35
2019-01-25T20:12:51.778Z,76.70
2019-01-25T20:15:20.296Z,49.60
2019-01-25T20:17:48.758Z,44.13
2019-01-25T20:20:22.580Z,47.33
2019-01-25T20:22:51.007Z,47.93
2019-01-25T20:25:19.831Z,47.00
2019-01-25T20:27:48.293Z,46.80
2019-01-25T20:30:19.826Z,58.40
2019-01-25T20:32:48.301Z,72.60
2019-01-25T20:35:18.272Z,65.22
2019-01-25T20:37:47.070Z,66.15
2019-01-25T20:40:16.165Z,57.75
2019-01-25T20:42:45.153Z,58.68
2019-01-25T20:45:16.676Z,57.23
2019-01-25T20:47:45.171Z,50.08
2019-01-25T20:50:16.015Z,51.75
2019-01-25T20:52:44.760Z,47.40
2019-01-25T20:55:14.645Z,48.75
2019-01-25T20:57:43.106Z,48.15
2019-01-25T21:00:14.757Z,48.95
2019-01-25T21:02:43.569Z,50.67
2019-01-25T21:05:12.001Z,50.92
2019-01-25T21:07:40.533Z,48.20
2019-01-25T21:10:11.446Z,48.25
2019-01-25T21:12:39.917Z,46.90
2019-01-25T21:15:10.145Z,44.80
2019-01-25T21:17:38.646Z,47.98
2019-01-25T21:20:10.797Z,43.65
2019-01-25T21:25:07.020Z,43.85
2019-01-25T21:27:35.500Z,44.60
2019-01-25T21:30:04.791Z,44.13
2019-01-25T21:32:33.290Z,44.77
2019-01-25T21:35:01.744Z,45.60
2019-01-25T21:37:30.234Z,45.55
2019-01-25T21:44:20.145Z,32.80
2019-01-25T21:46:48.678Z,31.65
2019-01-25T21:50:49.506Z,31.82
2019-01-25T21:53:16.068Z,29.07
2019-01-25T21:55:42.726Z,28.62
2019-01-25T21:58:09.164Z,28.57
2019-01-25T22:00:35.515Z,29.02
2019-01-25T22:03:01.886Z,29.37
2019-01-25T22:05:28.562Z,29.63
2019-01-25T22:07:54.968Z,30.82
2019-01-25T22:10:23.795Z,29.45
2019-01-25T22:12:50.528Z,33.00
2019-01-25T22:15:17.347Z,40.70
2019-01-25T22:17:43.729Z,43.25
2019-01-25T22:20:13.808Z,40.65
2019-01-25T22:22:40.565Z,42.85
2019-01-25T22:25:07.426Z,40.83
2019-01-25T22:27:34.143Z,39.45
2019-01-25T22:30:00.495Z,37.65
2019-01-25T22:32:26.884Z,37.15
2019-01-25T22:34:53.528Z,35.68
2019-01-25T22:37:19.873Z,35.52
2019-01-25T22:39:46.556Z,35.90
2019-01-25T22:42:12.912Z,36.13
2019-01-25T22:44:39.324Z,36.28
2019-01-25T22:47:07.168Z,35.98
2019-01-25T22:49:33.553Z,34.48
2019-01-25T22:51:59.910Z,32.78
